sensor_id;sensor_type;location;lat;lon;timestamp;temperature;humidity
56123;DHT22;42426;46.104;19.656;2022-08-19T00:00:29;691.70;1331.20
56123;DHT22;42426;46.104;19.656;2022-08-19T00:02:55;691.60;1331.20
56123;DHT22;42426;46.104;19.656;2022-08-19T00:05:23;691.60;1331.20
56123;DHT22;42426;46.104;19.656;2022-08-19T00:07:49;691.60;1331.20
56123;DHT22;42426;46.104;19.656;2022-08-19T00:10:18;691.60;1331.20
56123;DHT22;42426;46.104;19.656;2022-08-19T00:12:44;691.50;1331.20
56123;DHT22;42426;46.104;19.656;2022-08-19T00:15:13;691.50;1331.20
56123;DHT22;42426;46.104;19.656;2022-08-19T00:17:41;691.50;1331.20
56123;DHT22;42426;46.104;19.656;2022-08-19T00:20:10;691.50;1331.20
56123;DHT22;42426;46.104;19.656;2022-08-19T00:22:37;691.50;1356.80
56123;DHT22;42426;46.104;19.656;2022-08-19T00:25:04;691.50;1356.80
56123;DHT22;42426;46.104;19.656;2022-08-19T00:27:30;691.40;1356.80
56123;DHT22;42426;46.104;19.656;2022-08-19T00:29:56;691.40;1356.80
56123;DHT22;42426;46.104;19.656;2022-08-19T00:32:25;691.30;1356.80
56123;DHT22;42426;46.104;19.656;2022-08-19T00:34:51;691.30;1356.80
56123;DHT22;42426;46.104;19.656;2022-08-19T00:37:19;691.30;1356.80
56123;DHT22;42426;46.104;19.656;2022-08-19T00:39:48;691.30;1356.80
56123;DHT22;42426;46.104;19.656;2022-08-19T00:42:14;691.30;1356.80
56123;DHT22;42426;46.104;19.656;2022-08-19T00:44:41;691.20;1356.80
56123;DHT22;42426;46.104;19.656;2022-08-19T00:47:08;691.20;1356.80
56123;DHT22;42426;46.104;19.656;2022-08-19T00:49:52;691.20;1382.40
56123;DHT22;42426;46.104;19.656;2022-08-19T00:52:29;666.50;1408.00
56123;DHT22;42426;46.104;19.656;2022-08-19T00:54:57;691.30;1356.80
56123;DHT22;42426;46.104;19.656;2022-08-19T00:57:33;666.50;1382.40
56123;DHT22;42426;46.104;19.656;2022-08-19T01:00:00;666.50;1382.40
56123;DHT22;42426;46.104;19.656;2022-08-19T01:02:27;666.50;1382.40
56123;DHT22;42426;46.104;19.656;2022-08-19T01:04:53;666.50;1382.40
56123;DHT22;42426;46.104;19.656;2022-08-19T01:07:20;666.50;1382.40
56123;DHT22;42426;46.104;19.656;2022-08-19T01:09:46;666.40;1382.40
56123;DHT22;42426;46.104;19.656;2022-08-19T01:12:13;666.40;1382.40
56123;DHT22;42426;46.104;19.656;2022-08-19T01:14:40;666.40;1382.40
56123;DHT22;42426;46.104;19.656;2022-08-19T01:17:07;666.40;1382.40
56123;DHT22;42426;46.104;19.656;2022-08-19T01:19:37;666.40;1382.40
56123;DHT22;42426;46.104;19.656;2022-08-19T01:24:50;666.30;1382.40
56123;DHT22;42426;46.104;19.656;2022-08-19T01:27:16;666.30;1408.00
56123;DHT22;42426;46.104;19.656;2022-08-19T01:29:44;666.20;1408.00
56123;DHT22;42426;46.104;19.656;2022-08-19T01:32:13;666.20;1408.00
56123;DHT22;42426;46.104;19.656;2022-08-19T01:34:40;666.20;1408.00
56123;DHT22;42426;46.104;19.656;2022-08-19T01:37:10;666.20;1408.00
56123;DHT22;42426;46.104;19.656;2022-08-19T01:39:39;666.20;1408.00
56123;DHT22;42426;46.104;19.656;2022-08-19T01:42:07;666.10;1433.60
56123;DHT22;42426;46.104;19.656;2022-08-19T01:44:34;666.10;1433.60
56123;DHT22;42426;46.104;19.656;2022-08-19T01:47:02;666.10;1408.00
56123;DHT22;42426;46.104;19.656;2022-08-19T01:49:29;666.10;1433.60
56123;DHT22;42426;46.104;19.656;2022-08-19T01:51:55;666.00;1433.60
56123;DHT22;42426;46.104;19.656;2022-08-19T01:54:23;666.10;1433.60
56123;DHT22;42426;46.104;19.656;2022-08-19T01:56:50;666.00;1433.60
56123;DHT22;42426;46.104;19.656;2022-08-19T01:59:19;666.00;1433.60
56123;DHT22;42426;46.104;19.656;2022-08-19T02:01:46;666.00;1433.60
56123;DHT22;42426;46.104;19.656;2022-08-19T02:04:12;666.00;1433.60
56123;DHT22;42426;46.104;19.656;2022-08-19T02:06:38;666.00;1433.60
56123;DHT22;42426;46.104;19.656;2022-08-19T02:09:07;666.00;1433.60
56123;DHT22;42426;46.104;19.656;2022-08-19T02:11:35;665.90;1433.60
56123;DHT22;42426;46.104;19.656;2022-08-19T02:14:04;666.00;1433.60
56123;DHT22;42426;46.104;19.656;2022-08-19T02:16:31;666.00;1433.60
56123;DHT22;42426;46.104;19.656;2022-08-19T02:18:58;665.90;1433.60
56123;DHT22;42426;46.104;19.656;2022-08-19T02:21:26;665.90;1433.60
56123;DHT22;42426;46.104;19.656;2022-08-19T02:23:52;665.90;1433.60
56123;DHT22;42426;46.104;19.656;2022-08-19T02:26:19;665.90;1433.60
56123;DHT22;42426;46.104;19.656;2022-08-19T02:28:45;665.90;1433.60
56123;DHT22;42426;46.104;19.656;2022-08-19T02:31:13;665.90;1459.20
56123;DHT22;42426;46.104;19.656;2022-08-19T02:33:40;665.90;1459.20
56123;DHT22;42426;46.104;19.656;2022-08-19T02:36:08;665.80;1459.20
56123;DHT22;42426;46.104;19.656;2022-08-19T02:38:34;665.80;1433.60
56123;DHT22;42426;46.104;19.656;2022-08-19T02:41:16;665.80;1433.60
56123;DHT22;42426;46.104;19.656;2022-08-19T02:43:43;665.80;1433.60
56123;DHT22;42426;46.104;19.656;2022-08-19T02:46:17;665.70;1433.60
56123;DHT22;42426;46.104;19.656;2022-08-19T02:48:50;665.70;1433.60
56123;DHT22;42426;46.104;19.656;2022-08-19T02:51:19;665.60;1459.20
56123;DHT22;42426;46.104;19.656;2022-08-19T02:53:45;665.60;1459.20
56123;DHT22;42426;46.104;19.656;2022-08-19T02:56:12;640.90;1433.60
56123;DHT22;42426;46.104;19.656;2022-08-19T02:58:38;640.90;1433.60
56123;DHT22;42426;46.104;19.656;2022-08-19T03:01:07;640.80;1459.20
56123;DHT22;42426;46.104;19.656;2022-08-19T03:03:33;640.80;1459.20
56123;DHT22;42426;46.104;19.656;2022-08-19T03:06:13;640.70;1459.20
56123;DHT22;42426;46.104;19.656;2022-08-19T03:08:41;640.70;1459.20
56123;DHT22;42426;46.104;19.656;2022-08-19T03:11:20;640.70;1459.20
56123;DHT22;42426;46.104;19.656;2022-08-19T03:13:47;640.70;1459.20
56123;DHT22;42426;46.104;19.656;2022-08-19T03:16:15;640.80;1459.20
56123;DHT22;42426;46.104;19.656;2022-08-19T03:18:41;640.80;1459.20
56123;DHT22;42426;46.104;19.656;2022-08-19T03:21:07;640.80;1433.60
56123;DHT22;42426;46.104;19.656;2022-08-19T03:23:34;640.80;1433.60
56123;DHT22;42426;46.104;19.656;2022-08-19T03:26:04;640.70;1459.20
56123;DHT22;42426;46.104;19.656;2022-08-19T03:28:31;640.70;1459.20
56123;DHT22;42426;46.104;19.656;2022-08-19T03:31:10;640.70;1459.20
56123;DHT22;42426;46.104;19.656;2022-08-19T03:33:37;640.70;1459.20
56123;DHT22;42426;46.104;19.656;2022-08-19T03:36:04;640.70;1459.20
56123;DHT22;42426;46.104;19.656;2022-08-19T03:38:31;640.70;1459.20
56123;DHT22;42426;46.104;19.656;2022-08-19T03:41:01;640.60;1459.20
56123;DHT22;42426;46.104;19.656;2022-08-19T03:43:27;640.60;1459.20
56123;DHT22;42426;46.104;19.656;2022-08-19T03:46:02;640.60;1459.20
56123;DHT22;42426;46.104;19.656;2022-08-19T03:48:30;640.50;1459.20
56123;DHT22;42426;46.104;19.656;2022-08-19T03:50:56;640.50;1459.20
56123;DHT22;42426;46.104;19.656;2022-08-19T03:53:24;640.50;1484.80
56123;DHT22;42426;46.104;19.656;2022-08-19T03:55:51;640.50;1484.80
56123;DHT22;42426;46.104;19.656;2022-08-19T03:58:16;640.50;1459.20
56123;DHT22;42426;46.104;19.656;2022-08-19T04:00:43;640.50;1459.20
56123;DHT22;42426;46.104;19.656;2022-08-19T04:03:10;640.50;1459.20
56123;DHT22;42426;46.104;19.656;2022-08-19T04:05:35;640.40;1484.80
56123;DHT22;42426;46.104;19.656;2022-08-19T04:08:04;640.40;1459.20
56123;DHT22;42426;46.104;19.656;2022-08-19T04:10:35;640.40;1459.20
56123;DHT22;42426;46.104;19.656;2022-08-19T04:13:02;640.40;1484.80
56123;DHT22;42426;46.104;19.656;2022-08-19T04:15:29;640.40;1484.80
56123;DHT22;42426;46.104;19.656;2022-08-19T04:17:56;640.40;1484.80
56123;DHT22;42426;46.104;19.656;2022-08-19T04:20:24;640.40;1484.80
56123;DHT22;42426;46.104;19.656;2022-08-19T04:22:50;640.40;1459.20
56123;DHT22;42426;46.104;19.656;2022-08-19T04:25:17;640.40;1484.80
56123;DHT22;42426;46.104;19.656;2022-08-19T04:27:43;640.50;1484.80
56123;DHT22;42426;46.104;19.656;2022-08-19T04:30:13;640.70;1484.80
56123;DHT22;42426;46.104;19.656;2022-08-19T04:32:38;640.70;1561.60
56123;DHT22;42426;46.104;19.656;2022-08-19T04:35:05;640.70;1484.80
56123;DHT22;42426;46.104;19.656;2022-08-19T04:37:31;640.80;1536.00
56123;DHT22;42426;46.104;19.656;2022-08-19T04:40:00;640.70;1484.80
56123;DHT22;42426;46.104;19.656;2022-08-19T04:42:44;640.80;1459.20
56123;DHT22;42426;46.104;19.656;2022-08-19T04:45:13;640.90;1536.00
56123;DHT22;42426;46.104;19.656;2022-08-19T04:47:41;665.60;1484.80
56123;DHT22;42426;46.104;19.656;2022-08-19T04:50:08;640.90;1459.20
56123;DHT22;42426;46.104;19.656;2022-08-19T04:52:38;640.90;1484.80
56123;DHT22;42426;46.104;19.656;2022-08-19T04:55:11;665.60;1484.80
56123;DHT22;42426;46.104;19.656;2022-08-19T04:57:38;665.60;1536.00
56123;DHT22;42426;46.104;19.656;2022-08-19T05:00:08;665.60;1561.60
56123;DHT22;42426;46.104;19.656;2022-08-19T05:02:34;640.90;1510.40
56123;DHT22;42426;46.104;19.656;2022-08-19T05:05:01;665.70;1484.80
56123;DHT22;42426;46.104;19.656;2022-08-19T05:07:27;665.70;1484.80
56123;DHT22;42426;46.104;19.656;2022-08-19T05:09:54;665.70;1484.80
56123;DHT22;42426;46.104;19.656;2022-08-19T05:12:20;666.00;1536.00
56123;DHT22;42426;46.104;19.656;2022-08-19T05:14:46;665.90;1510.40
56123;DHT22;42426;46.104;19.656;2022-08-19T05:17:14;665.90;1459.20
56123;DHT22;42426;46.104;19.656;2022-08-19T05:19:39;665.70;1484.80
56123;DHT22;42426;46.104;19.656;2022-08-19T05:22:24;665.70;1484.80
56123;DHT22;42426;46.104;19.656;2022-08-19T05:25:09;665.70;1484.80
56123;DHT22;42426;46.104;19.656;2022-08-19T05:27:36;665.60;1536.00
56123;DHT22;42426;46.104;19.656;2022-08-19T05:30:04;665.60;1510.40
56123;DHT22;42426;46.104;19.656;2022-08-19T05:32:31;640.80;1484.80
56123;DHT22;42426;46.104;19.656;2022-08-19T05:34:56;640.80;1484.80
56123;DHT22;42426;46.104;19.656;2022-08-19T05:37:22;640.70;1561.60
56123;DHT22;42426;46.104;19.656;2022-08-19T05:39:48;640.80;1510.40
56123;DHT22;42426;46.104;19.656;2022-08-19T05:42:15;640.70;1510.40
56123;DHT22;42426;46.104;19.656;2022-08-19T05:44:43;665.60;1536.00
56123;DHT22;42426;46.104;19.656;2022-08-19T05:47:11;665.70;1510.40
56123;DHT22;42426;46.104;19.656;2022-08-19T05:49:38;665.70;1510.40
56123;DHT22;42426;46.104;19.656;2022-08-19T05:52:10;666.00;1536.00
56123;DHT22;42426;46.104;19.656;2022-08-19T05:54:38;665.90;1510.40
56123;DHT22;42426;46.104;19.656;2022-08-19T05:57:07;665.90;1536.00
56123;DHT22;42426;46.104;19.656;2022-08-19T05:59:33;666.00;1484.80
56123;DHT22;42426;46.104;19.656;2022-08-19T06:02:00;666.00;1484.80
56123;DHT22;42426;46.104;19.656;2022-08-19T06:04:26;666.00;1510.40
56123;DHT22;42426;46.104;19.656;2022-08-19T06:06:53;666.10;1484.80
56123;DHT22;42426;46.104;19.656;2022-08-19T06:09:21;666.10;1484.80
56123;DHT22;42426;46.104;19.656;2022-08-19T06:11:56;666.20;1536.00
56123;DHT22;42426;46.104;19.656;2022-08-19T06:14:27;666.30;1536.00
56123;DHT22;42426;46.104;19.656;2022-08-19T06:16:53;666.40;1510.40
56123;DHT22;42426;46.104;19.656;2022-08-19T06:19:21;666.40;1484.80
56123;DHT22;42426;46.104;19.656;2022-08-19T06:21:50;666.50;1459.20
56123;DHT22;42426;46.104;19.656;2022-08-19T06:24:19;666.50;1484.80
56123;DHT22;42426;46.104;19.656;2022-08-19T06:26:48;691.20;1459.20
56123;DHT22;42426;46.104;19.656;2022-08-19T06:29:16;691.20;1459.20
56123;DHT22;42426;46.104;19.656;2022-08-19T06:31:44;691.30;1433.60
56123;DHT22;42426;46.104;19.656;2022-08-19T06:34:10;691.30;1459.20
56123;DHT22;42426;46.104;19.656;2022-08-19T06:36:39;691.40;1459.20
56123;DHT22;42426;46.104;19.656;2022-08-19T06:39:16;691.50;1484.80
56123;DHT22;42426;46.104;19.656;2022-08-19T06:41:48;691.50;1484.80
56123;DHT22;42426;46.104;19.656;2022-08-19T06:44:17;691.60;1408.00
56123;DHT22;42426;46.104;19.656;2022-08-19T06:46:43;691.70;1433.60
56123;DHT22;42426;46.104;19.656;2022-08-19T06:49:10;691.80;1433.60
56123;DHT22;42426;46.104;19.656;2022-08-19T06:51:44;691.90;1408.00
56123;DHT22;42426;46.104;19.656;2022-08-19T06:54:10;691.90;1408.00
56123;DHT22;42426;46.104;19.656;2022-08-19T06:56:37;691.90;1408.00
56123;DHT22;42426;46.104;19.656;2022-08-19T06:59:09;692.00;1382.40
56123;DHT22;42426;46.104;19.656;2022-08-19T07:01:44;692.10;1433.60
56123;DHT22;42426;46.104;19.656;2022-08-19T07:16:25;717.40;1382.40
56123;DHT22;42426;46.104;19.656;2022-08-19T07:18:52;717.30;1408.00
56123;DHT22;42426;46.104;19.656;2022-08-19T07:21:24;717.30;1408.00
56123;DHT22;42426;46.104;19.656;2022-08-19T07:46:04;742.50;1356.80
56123;DHT22;42426;46.104;19.656;2022-08-19T07:48:30;742.50;1382.40
56123;DHT22;42426;46.104;19.656;2022-08-19T07:50:58;742.50;1382.40
56123;DHT22;42426;46.104;19.656;2022-08-19T07:53:29;742.90;1356.80
56123;DHT22;42426;46.104;19.656;2022-08-19T08:18:40;768.40;1280.00
56123;DHT22;42426;46.104;19.656;2022-08-19T08:21:07;768.10;1305.60
56123;DHT22;42426;46.104;19.656;2022-08-19T08:28:27;768.70;1228.80
56123;DHT22;42426;46.104;19.656;2022-08-19T08:30:53;768.50;1254.40
56123;DHT22;42426;46.104;19.656;2022-08-19T08:33:23;768.50;1254.40
56123;DHT22;42426;46.104;19.656;2022-08-19T08:35:49;768.50;1228.80
56123;DHT22;42426;46.104;19.656;2022-08-19T08:38:15;768.70;1228.80
56123;DHT22;42426;46.104;19.656;2022-08-19T09:48:41;844.80;1024.00
56123;DHT22;42426;46.104;19.656;2022-08-19T09:51:12;844.80;1024.00
56123;DHT22;42426;46.104;19.656;2022-08-19T09:53:41;820.00;998.40
56123;DHT22;42426;46.104;19.656;2022-08-19T09:56:07;844.80;972.80
56123;DHT22;42426;46.104;19.656;2022-08-19T09:58:33;844.90;972.80
56123;DHT22;42426;46.104;19.656;2022-08-19T10:01:01;845.00;972.80
56123;DHT22;42426;46.104;19.656;2022-08-19T10:03:28;845.00;972.80
56123;DHT22;42426;46.104;19.656;2022-08-19T10:05:55;845.10;972.80
56123;DHT22;42426;46.104;19.656;2022-08-19T10:08:30;845.10;998.40
56123;DHT22;42426;46.104;19.656;2022-08-19T10:10:56;845.10;998.40
56123;DHT22;42426;46.104;19.656;2022-08-19T10:13:25;845.10;998.40
56123;DHT22;42426;46.104;19.656;2022-08-19T10:15:56;845.20;972.80
56123;DHT22;42426;46.104;19.656;2022-08-19T10:18:25;845.30;972.80
56123;DHT22;42426;46.104;19.656;2022-08-19T10:21:13;845.30;972.80
56123;DHT22;42426;46.104;19.656;2022-08-19T10:31:07;870.50;896.00
56123;DHT22;42426;46.104;19.656;2022-08-19T10:33:35;870.40;947.20
56123;DHT22;42426;46.104;19.656;2022-08-19T10:36:10;845.60;947.20
56123;DHT22;42426;46.104;19.656;2022-08-19T10:38:37;870.40;896.00
56123;DHT22;42426;46.104;19.656;2022-08-19T10:41:08;870.40;896.00
56123;DHT22;42426;46.104;19.656;2022-08-19T10:43:34;870.50;947.20
56123;DHT22;42426;46.104;19.656;2022-08-19T10:46:04;870.40;947.20
56123;DHT22;42426;46.104;19.656;2022-08-19T10:48:31;870.50;921.60
56123;DHT22;42426;46.104;19.656;2022-08-19T10:50:57;870.50;870.40
56123;DHT22;42426;46.104;19.656;2022-08-19T10:53:41;870.50;947.20
56123;DHT22;42426;46.104;19.656;2022-08-19T10:56:07;870.70;870.40
56123;DHT22;42426;46.104;19.656;2022-08-19T10:58:51;870.60;896.00
56123;DHT22;42426;46.104;19.656;2022-08-19T11:01:18;870.50;921.60
56123;DHT22;42426;46.104;19.656;2022-08-19T11:03:43;870.60;896.00
56123;DHT22;42426;46.104;19.656;2022-08-19T11:06:10;870.70;896.00
56123;DHT22;42426;46.104;19.656;2022-08-19T11:08:36;870.90;870.40
56123;DHT22;42426;46.104;19.656;2022-08-19T11:11:07;871.00;844.80
56123;DHT22;42426;46.104;19.656;2022-08-19T11:13:36;870.90;896.00
56123;DHT22;42426;46.104;19.656;2022-08-19T11:16:09;871.00;896.00
56123;DHT22;42426;46.104;19.656;2022-08-19T11:18:39;871.00;896.00
56123;DHT22;42426;46.104;19.656;2022-08-19T11:23:47;871.00;896.00
56123;DHT22;42426;46.104;19.656;2022-08-19T11:26:13;871.10;844.80
56123;DHT22;42426;46.104;19.656;2022-08-19T11:28:40;871.20;896.00
56123;DHT22;42426;46.104;19.656;2022-08-19T11:31:11;871.30;870.40
56123;DHT22;42426;46.104;19.656;2022-08-19T11:33:37;871.20;844.80
56123;DHT22;42426;46.104;19.656;2022-08-19T11:36:03;896.00;870.40
56123;DHT22;42426;46.104;19.656;2022-08-19T11:38:29;871.30;896.00
56123;DHT22;42426;46.104;19.656;2022-08-19T11:41:03;871.20;870.40
56123;DHT22;42426;46.104;19.656;2022-08-19T11:43:29;896.00;870.40
56123;DHT22;42426;46.104;19.656;2022-08-19T11:45:56;896.10;844.80
56123;DHT22;42426;46.104;19.656;2022-08-19T11:48:24;896.30;870.40
56123;DHT22;42426;46.104;19.656;2022-08-19T11:50:51;896.30;870.40
56123;DHT22;42426;46.104;19.656;2022-08-19T11:53:23;896.50;844.80
56123;DHT22;42426;46.104;19.656;2022-08-19T11:55:50;896.60;870.40
56123;DHT22;42426;46.104;19.656;2022-08-19T11:58:19;896.80;844.80
56123;DHT22;42426;46.104;19.656;2022-08-19T12:00:45;896.20;870.40
56123;DHT22;42426;46.104;19.656;2022-08-19T12:03:12;896.10;844.80
56123;DHT22;42426;46.104;19.656;2022-08-19T12:05:38;896.40;870.40
56123;DHT22;42426;46.104;19.656;2022-08-19T12:08:05;896.30;870.40
56123;DHT22;42426;46.104;19.656;2022-08-19T12:10:32;896.60;844.80
56123;DHT22;42426;46.104;19.656;2022-08-19T12:12:58;896.80;870.40
56123;DHT22;42426;46.104;19.656;2022-08-19T12:15:24;921.60;844.80
56123;DHT22;42426;46.104;19.656;2022-08-19T12:17:49;921.80;844.80
56123;DHT22;42426;46.104;19.656;2022-08-19T12:27:36;922.00;793.60
56123;DHT22;42426;46.104;19.656;2022-08-19T12:30:04;921.90;819.20
56123;DHT22;42426;46.104;19.656;2022-08-19T12:32:30;921.90;793.60
56123;DHT22;42426;46.104;19.656;2022-08-19T12:34:56;922.10;844.80
56123;DHT22;42426;46.104;19.656;2022-08-19T12:37:21;921.90;844.80
56123;DHT22;42426;46.104;19.656;2022-08-19T12:39:47;921.90;793.60
56123;DHT22;42426;46.104;19.656;2022-08-19T12:42:14;922.50;768.00
56123;DHT22;42426;46.104;19.656;2022-08-19T12:44:42;922.40;793.60
56123;DHT22;42426;46.104;19.656;2022-08-19T12:47:09;922.20;844.80
56123;DHT22;42426;46.104;19.656;2022-08-19T12:49:36;921.90;870.40
56123;DHT22;42426;46.104;19.656;2022-08-19T12:52:09;921.80;896.00
56123;DHT22;42426;46.104;19.656;2022-08-19T12:54:42;921.90;896.00
56123;DHT22;42426;46.104;19.656;2022-08-19T12:57:11;921.90;870.40
56123;DHT22;42426;46.104;19.656;2022-08-19T12:59:38;921.90;870.40
56123;DHT22;42426;46.104;19.656;2022-08-19T13:04:32;947.20;768.00
56123;DHT22;42426;46.104;19.656;2022-08-19T13:21:39;947.20;870.40
56123;DHT22;42426;46.104;19.656;2022-08-19T13:24:04;922.20;870.40
56123;DHT22;42426;46.104;19.656;2022-08-19T13:26:30;922.10;870.40
56123;DHT22;42426;46.104;19.656;2022-08-19T14:21:19;896.80;844.80
56123;DHT22;42426;46.104;19.656;2022-08-19T14:24:01;896.50;844.80
56123;DHT22;42426;46.104;19.656;2022-08-19T14:28:53;896.20;870.40
56123;DHT22;42426;46.104;19.656;2022-08-19T14:31:23;871.30;896.00
56123;DHT22;42426;46.104;19.656;2022-08-19T14:33:49;871.30;844.80
56123;DHT22;42426;46.104;19.656;2022-08-19T14:36:17;896.10;844.80
56123;DHT22;42426;46.104;19.656;2022-08-19T14:38:43;871.20;844.80
56123;DHT22;42426;46.104;19.656;2022-08-19T14:41:20;871.00;844.80
56123;DHT22;42426;46.104;19.656;2022-08-19T14:43:48;870.80;870.40
56123;DHT22;42426;46.104;19.656;2022-08-19T14:46:17;845.50;921.60
56123;DHT22;42426;46.104;19.656;2022-08-19T14:48:45;845.30;921.60
56123;DHT22;42426;46.104;19.656;2022-08-19T15:32:55;819.20;998.40
56123;DHT22;42426;46.104;19.656;2022-08-19T17:20:11;768.70;1024.00
56123;DHT22;42426;46.104;19.656;2022-08-19T17:22:37;768.50;1024.00
56123;DHT22;42426;46.104;19.656;2022-08-19T17:25:03;768.40;1049.60
56123;DHT22;42426;46.104;19.656;2022-08-19T17:27:29;768.40;1024.00
56123;DHT22;42426;46.104;19.656;2022-08-19T17:29:55;768.30;1075.20
56123;DHT22;42426;46.104;19.656;2022-08-19T17:32:25;768.30;1075.20
56123;DHT22;42426;46.104;19.656;2022-08-19T17:34:52;768.80;1024.00
56123;DHT22;42426;46.104;19.656;2022-08-19T17:37:18;768.30;1075.20
56123;DHT22;42426;46.104;19.656;2022-08-19T17:39:44;768.30;1075.20
56123;DHT22;42426;46.104;19.656;2022-08-19T17:42:10;768.30;1100.80
56123;DHT22;42426;46.104;19.656;2022-08-19T18:04:07;768.50;1049.60
56123;DHT22;42426;46.104;19.656;2022-08-19T18:06:34;768.20;1049.60
56123;DHT22;42426;46.104;19.656;2022-08-19T18:09:04;717.30;1280.00
56123;DHT22;42426;46.104;19.656;2022-08-19T18:13:56;666.40;1459.20
56123;DHT22;42426;46.104;19.656;2022-08-19T18:18:48;665.70;1561.60
56123;DHT22;42426;46.104;19.656;2022-08-19T18:26:07;615.10;1792.00
56123;DHT22;42426;46.104;19.656;2022-08-19T18:28:33;614.70;1792.00
56123;DHT22;42426;46.104;19.656;2022-08-19T18:30:59;614.60;1792.00
56123;DHT22;42426;46.104;19.656;2022-08-19T18:33:25;614.60;1868.80
56123;DHT22;42426;46.104;19.656;2022-08-19T18:35:51;614.70;1868.80
56123;DHT22;42426;46.104;19.656;2022-08-19T18:38:20;614.60;1868.80
56123;DHT22;42426;46.104;19.656;2022-08-19T18:41:05;614.70;1868.80
56123;DHT22;42426;46.104;19.656;2022-08-19T18:43:49;614.90;1894.40
56123;DHT22;42426;46.104;19.656;2022-08-19T18:46:34;614.80;1868.80
56123;DHT22;42426;46.104;19.656;2022-08-19T18:52:05;640.30;1766.40
56123;DHT22;42426;46.104;19.656;2022-08-19T18:54:31;640.70;1689.60
56123;DHT22;42426;46.104;19.656;2022-08-19T18:56:57;640.60;1715.20
56123;DHT22;42426;46.104;19.656;2022-08-19T18:59:25;640.30;1792.00
56123;DHT22;42426;46.104;19.656;2022-08-19T19:01:55;640.50;1766.40
56123;DHT22;42426;46.104;19.656;2022-08-19T19:04:24;640.40;1740.80
56123;DHT22;42426;46.104;19.656;2022-08-19T19:06:51;640.90;1664.00
56123;DHT22;42426;46.104;19.656;2022-08-19T19:09:59;665.80;1740.80
56123;DHT22;42426;46.104;19.656;2022-08-19T19:12:25;666.20;1664.00
56123;DHT22;42426;46.104;19.656;2022-08-19T19:14:57;666.10;1740.80
56123;DHT22;42426;46.104;19.656;2022-08-19T19:19:52;691.20;1587.20
56123;DHT22;42426;46.104;19.656;2022-08-19T19:22:20;691.30;1561.60
56123;DHT22;42426;46.104;19.656;2022-08-19T19:24:46;691.20;1740.80
56123;DHT22;42426;46.104;19.656;2022-08-19T19:27:14;666.40;1612.80
56123;DHT22;42426;46.104;19.656;2022-08-19T19:29:43;666.50;1715.20
56123;DHT22;42426;46.104;19.656;2022-08-19T19:32:38;666.50;1612.80
56123;DHT22;42426;46.104;19.656;2022-08-19T19:35:06;691.20;1689.60
56123;DHT22;42426;46.104;19.656;2022-08-19T19:37:32;666.50;1664.00
56123;DHT22;42426;46.104;19.656;2022-08-19T19:39:58;666.50;1689.60
56123;DHT22;42426;46.104;19.656;2022-08-19T19:42:24;666.20;1766.40
56123;DHT22;42426;46.104;19.656;2022-08-19T19:44:51;666.20;1715.20
56123;DHT22;42426;46.104;19.656;2022-08-19T19:47:19;665.90;1817.60
56123;DHT22;42426;46.104;19.656;2022-08-19T19:49:49;665.90;1740.80
56123;DHT22;42426;46.104;19.656;2022-08-19T19:52:20;666.10;1766.40
56123;DHT22;42426;46.104;19.656;2022-08-19T19:54:45;666.20;1689.60
56123;DHT22;42426;46.104;19.656;2022-08-19T19:57:13;666.40;1740.80
56123;DHT22;42426;46.104;19.656;2022-08-19T19:59:40;666.20;1689.60
56123;DHT22;42426;46.104;19.656;2022-08-19T20:02:07;666.50;1664.00
56123;DHT22;42426;46.104;19.656;2022-08-19T20:04:33;666.50;1638.40
56123;DHT22;42426;46.104;19.656;2022-08-19T20:06:59;691.30;1612.80
56123;DHT22;42426;46.104;19.656;2022-08-19T20:09:25;691.30;1612.80
56123;DHT22;42426;46.104;19.656;2022-08-19T20:11:53;691.30;1612.80
56123;DHT22;42426;46.104;19.656;2022-08-19T20:14:23;691.30;1638.40
56123;DHT22;42426;46.104;19.656;2022-08-19T20:16:50;691.20;1664.00
56123;DHT22;42426;46.104;19.656;2022-08-19T20:19:19;691.30;1664.00
56123;DHT22;42426;46.104;19.656;2022-08-19T20:21:47;691.20;1664.00
56123;DHT22;42426;46.104;19.656;2022-08-19T20:24:17;666.50;1715.20
56123;DHT22;42426;46.104;19.656;2022-08-19T20:26:45;666.30;1740.80
56123;DHT22;42426;46.104;19.656;2022-08-19T20:29:13;666.10;1766.40
56123;DHT22;42426;46.104;19.656;2022-08-19T20:31:39;666.00;1792.00
56123;DHT22;42426;46.104;19.656;2022-08-19T20:34:05;666.10;1715.20
56123;DHT22;42426;46.104;19.656;2022-08-19T20:36:31;665.90;1766.40
56123;DHT22;42426;46.104;19.656;2022-08-19T20:38:57;666.20;1740.80
56123;DHT22;42426;46.104;19.656;2022-08-19T20:41:23;666.20;1664.00
56123;DHT22;42426;46.104;19.656;2022-08-19T20:43:50;666.50;1664.00
56123;DHT22;42426;46.104;19.656;2022-08-19T20:46:17;691.20;1715.20
56123;DHT22;42426;46.104;19.656;2022-08-19T20:48:43;691.30;1612.80
56123;DHT22;42426;46.104;19.656;2022-08-19T20:51:11;691.20;1715.20
56123;DHT22;42426;46.104;19.656;2022-08-19T20:53:38;666.40;1766.40
56123;DHT22;42426;46.104;19.656;2022-08-19T20:56:05;666.20;1792.00
56123;DHT22;42426;46.104;19.656;2022-08-19T20:58:32;666.10;1843.20
56123;DHT22;42426;46.104;19.656;2022-08-19T21:01:00;665.90;1868.80
56123;DHT22;42426;46.104;19.656;2022-08-19T21:03:33;665.70;1868.80
56123;DHT22;42426;46.104;19.656;2022-08-19T21:05:59;665.70;1868.80
56123;DHT22;42426;46.104;19.656;2022-08-19T21:08:25;665.80;1792.00
56123;DHT22;42426;46.104;19.656;2022-08-19T21:10:54;666.20;1715.20
56123;DHT22;42426;46.104;19.656;2022-08-19T21:13:20;666.10;1715.20
56123;DHT22;42426;46.104;19.656;2022-08-19T21:15:47;666.50;1740.80
56123;DHT22;42426;46.104;19.656;2022-08-19T21:18:17;691.20;1638.40
56123;DHT22;42426;46.104;19.656;2022-08-19T21:20:44;691.30;1664.00
56123;DHT22;42426;46.104;19.656;2022-08-19T21:23:15;666.40;1664.00
56123;DHT22;42426;46.104;19.656;2022-08-19T21:25:41;691.20;1638.40
56123;DHT22;42426;46.104;19.656;2022-08-19T21:28:07;666.50;1740.80